createdAt,value
2023-12-16T00:02:27.437Z,102348.38
2023-12-16T00:04:59.069Z,102337.64
2023-12-16T00:07:30.785Z,102333.29
2023-12-16T00:10:02.591Z,102333.80
2023-12-16T00:12:34.616Z,102336.75
2023-12-16T00:15:07.588Z,102345.05
2023-12-16T00:17:39.884Z,102344.91
2023-12-16T00:20:13.194Z,102348.56
2023-12-16T00:22:46.749Z,102363.84
2023-12-16T00:25:18.920Z,102368.70
2023-12-16T00:27:50.626Z,102363.52
2023-12-16T00:30:22.342Z,102360.42
2023-12-16T00:32:54.106Z,102355.40
2023-12-16T00:35:26.085Z,102357.13
2023-12-16T00:37:57.746Z,102346.90
2023-12-16T00:40:29.678Z,102348.80
2023-12-16T00:43:01.518Z,102343.05
2023-12-16T00:45:33.205Z,102358.32
2023-12-16T00:48:04.994Z,102357.96
2023-12-16T00:50:39.452Z,102358.14
2023-12-16T00:53:11.146Z,102363.86
2023-12-16T00:55:42.975Z,102365.08
2023-12-16T00:58:14.673Z,102369.58
2023-12-16T01:00:46.867Z,102368.04
2023-12-16T01:03:18.948Z,102371.88
2023-12-16T01:05:50.835Z,102379.70
2023-12-16T01:08:22.404Z,102387.34
2023-12-16T01:10:54.032Z,102388.55
2023-12-16T01:13:25.632Z,102391.47
2023-12-16T01:15:57.447Z,102391.14
2023-12-16T01:18:29.299Z,102382.64
2023-12-16T01:21:01.016Z,102377.27
2023-12-16T01:23:32.844Z,102372.27
2023-12-16T01:26:04.826Z,102373.67
2023-12-16T01:28:36.425Z,102369.33
2023-12-16T01:31:09.379Z,102367.09
2023-12-16T01:33:41.108Z,102364.67
2023-12-16T01:36:13.191Z,102363.46
2023-12-16T01:38:44.763Z,102344.91
2023-12-16T01:41:16.460Z,102345.83
2023-12-16T01:43:48.404Z,102347.58
2023-12-16T01:46:20.870Z,102343.77
2023-12-16T01:48:52.719Z,102349.13
2023-12-16T01:51:24.592Z,102351.54
2023-12-16T01:53:56.554Z,102351.70
2023-12-16T01:56:29.953Z,102359.48
2023-12-16T01:59:01.958Z,102361.54
2023-12-16T02:01:34.049Z,102358.06
2023-12-16T02:04:06.029Z,102360.67
2023-12-16T02:06:41.192Z,102359.98
2023-12-16T02:09:14.392Z,102360.34
2023-12-16T02:11:46.677Z,102358.60
2023-12-16T02:14:18.460Z,102358.96
2023-12-16T02:16:50.440Z,102354.99
2023-12-16T02:19:27.723Z,102365.59
2023-12-16T02:21:59.776Z,102367.87
2023-12-16T02:24:32.886Z,102365.80
2023-12-16T02:27:04.954Z,102370.48
2023-12-16T02:29:36.729Z,102378.61
2023-12-16T02:32:10.013Z,102385.52
2023-12-16T02:34:41.643Z,102393.15
2023-12-16T02:37:14.190Z,102395.21
2023-12-16T02:39:45.843Z,102401.25
2023-12-16T02:42:17.634Z,102410.78
2023-12-16T02:44:49.501Z,102411.11
2023-12-16T02:47:21.164Z,102416.82
2023-12-16T02:49:53.087Z,102417.85
2023-12-16T02:52:25.214Z,102414.92
2023-12-16T02:54:56.903Z,102406.63
2023-12-16T02:57:28.941Z,102398.31
2023-12-16T03:00:00.588Z,102396.61
2023-12-16T03:02:32.337Z,102394.34
2023-12-16T03:05:04.625Z,102390.51
2023-12-16T03:07:36.472Z,102388.94
2023-12-16T03:10:09.538Z,102379.06
2023-12-16T03:12:41.401Z,102373.17
2023-12-16T03:15:13.946Z,102364.35
2023-12-16T03:17:47.232Z,102361.95
2023-12-16T03:20:19.050Z,102360.76
2023-12-16T03:22:50.799Z,102357.12
2023-12-16T03:25:22.688Z,102357.98
2023-12-16T03:27:54.407Z,102361.45
2023-12-16T03:30:26.011Z,102365.13
2023-12-16T03:32:57.687Z,102368.91
2023-12-16T03:35:29.403Z,102370.33
2023-12-16T03:38:01.670Z,102376.03
2023-12-16T03:40:33.267Z,102373.24
2023-12-16T03:43:05.057Z,102381.40
2023-12-16T03:45:36.716Z,102376.55
2023-12-16T03:48:09.107Z,102371.70
2023-12-16T03:50:40.738Z,102367.02
2023-12-16T03:53:12.586Z,102359.05
2023-12-16T03:55:44.472Z,102366.35
2023-12-16T03:58:16.230Z,102369.15
2023-12-16T04:00:48.290Z,102363.27
2023-12-16T04:03:20.036Z,102355.48
2023-12-16T04:05:51.900Z,102359.66
2023-12-16T04:08:23.644Z,102361.93
2023-12-16T04:10:55.296Z,102364.35
2023-12-16T04:13:27.127Z,102368.00
2023-12-16T04:15:58.773Z,102360.55
2023-12-16T04:18:30.947Z,102360.20
2023-12-16T04:21:03.341Z,102365.75
2023-12-16T04:23:35.017Z,102372.33
2023-12-16T04:26:08.709Z,102373.20
2023-12-16T04:28:40.707Z,102372.85
2023-12-16T04:31:18.643Z,102379.63
2023-12-16T04:33:51.170Z,102387.79
2023-12-16T04:36:23.408Z,102389.00
2023-12-16T04:38:55.276Z,102385.70
2023-12-16T04:41:26.908Z,102388.64
2023-12-16T04:43:59.020Z,102389.87
2023-12-16T04:46:30.734Z,102385.36
2023-12-16T04:49:03.039Z,102395.78
2023-12-16T04:51:34.734Z,102405.52
2023-12-16T04:54:06.733Z,102415.60
2023-12-16T04:56:38.453Z,102413.16
2023-12-16T04:59:10.119Z,102410.75
2023-12-16T05:01:41.833Z,102407.30
2023-12-16T05:04:13.677Z,102408.52
2023-12-16T05:06:45.554Z,102408.52
2023-12-16T05:09:17.539Z,102412.83
2023-12-16T05:11:49.139Z,102409.18
2023-12-16T05:14:20.928Z,102406.92
2023-12-16T05:16:52.593Z,102403.46
2023-12-16T05:19:24.286Z,102405.03
2023-12-16T05:21:56.098Z,102405.72
2023-12-16T05:24:27.850Z,102408.84
2023-12-16T05:26:59.524Z,102412.83
2023-12-16T05:29:31.269Z,102414.05
2023-12-16T05:32:03.491Z,102418.75
2023-12-16T05:34:35.307Z,102422.22
2023-12-16T05:37:07.395Z,102430.39
2023-12-16T05:39:39.045Z,102432.14
2023-12-16T05:42:10.816Z,102432.84
2023-12-16T05:44:42.701Z,102426.04
2023-12-16T05:47:14.517Z,102423.63
2023-12-16T05:49:47.103Z,102422.75
2023-12-16T05:52:19.041Z,102420.67
2023-12-16T05:54:50.854Z,102421.38
2023-12-16T05:57:22.716Z,102425.36
2023-12-16T05:59:54.607Z,102425.36
2023-12-16T06:02:26.680Z,102425.55
2023-12-16T06:04:58.840Z,102433.02
2023-12-16T06:07:30.594Z,102431.11
2023-12-16T06:10:04.211Z,102430.42
2023-12-16T06:12:37.382Z,102427.31
2023-12-16T06:15:11.006Z,102429.05
2023-12-16T06:17:43.121Z,102430.45
2023-12-16T06:20:16.032Z,102421.26
2023-12-16T06:22:47.920Z,102429.76
2023-12-16T06:25:19.534Z,102430.28
2023-12-16T06:27:51.404Z,102433.23
2023-12-16T06:30:23.500Z,102435.83
2023-12-16T06:32:55.331Z,102437.55
2023-12-16T06:35:27.281Z,102441.21
2023-12-16T06:37:58.900Z,102442.95
2023-12-16T06:40:32.894Z,102446.25
2023-12-16T06:43:04.783Z,102453.70
2023-12-16T06:45:39.442Z,102453.19
2023-12-16T06:48:09.768Z,102461.36
2023-12-16T06:50:41.482Z,102464.15
2023-12-16T06:53:13.708Z,102463.28
2023-12-16T06:55:45.849Z,102455.48
2023-12-16T06:58:17.600Z,102447.33
2023-12-16T07:00:49.565Z,102442.45
2023-12-16T07:03:21.274Z,102450.27
2023-12-16T07:05:53.197Z,102455.13
2023-12-16T07:08:24.741Z,102452.86
2023-12-16T07:10:56.365Z,102454.08
2023-12-16T07:13:27.979Z,102448.54
2023-12-16T07:15:59.854Z,102452.38
2023-12-16T07:18:31.723Z,102455.67
2023-12-16T07:21:03.818Z,102456.20
2023-12-16T07:23:35.402Z,102458.10
2023-12-16T07:26:07.425Z,102455.86
2023-12-16T07:28:39.384Z,102461.05
2023-12-16T07:31:11.384Z,102459.50
2023-12-16T07:33:43.131Z,102462.48
2023-12-16T07:36:16.943Z,102465.95
2023-12-16T07:38:48.626Z,102465.95
2023-12-16T07:41:20.496Z,102466.48
2023-12-16T07:43:52.265Z,102467.52
2023-12-16T07:46:25.871Z,102469.61
2023-12-16T07:48:57.663Z,102467.36
2023-12-16T07:51:29.503Z,102471.89
2023-12-16T07:54:01.285Z,102473.64
2023-12-16T07:56:33.146Z,102473.81
2023-12-16T07:59:04.975Z,102477.63
2023-12-16T08:01:36.849Z,102483.89
2023-12-16T08:04:08.593Z,102486.84
2023-12-16T08:06:40.554Z,102486.85
2023-12-16T08:09:12.135Z,102488.41
2023-12-16T08:12:11.286Z,102489.65
2023-12-16T08:14:41.598Z,102488.41
2023-12-16T08:17:13.274Z,102489.48
2023-12-16T08:19:45.220Z,102498.84
2023-12-16T08:22:16.999Z,102505.96
2023-12-16T08:24:48.859Z,102512.23
2023-12-16T08:27:20.898Z,102514.34
2023-12-16T08:30:34.178Z,102520.95
2023-12-16T08:33:06.318Z,102522.35
2023-12-16T08:35:38.697Z,102527.93
2023-12-16T08:38:10.415Z,102531.41
2023-12-16T08:40:42.122Z,102533.85
2023-12-16T08:43:14.006Z,102529.34
2023-12-16T08:45:45.646Z,102521.52
2023-12-16T08:48:17.465Z,102525.69
2023-12-16T08:50:49.189Z,102525.35
2023-12-16T08:53:21.991Z,102521.54
2023-12-16T08:55:53.694Z,102525.54
2023-12-16T08:58:25.478Z,102519.95
2023-12-16T09:00:57.296Z,102517.19
2023-12-16T09:03:29.040Z,102513.36
2023-12-16T09:06:28.848Z,102516.49
2023-12-16T09:09:02.575Z,102517.19
2023-12-16T09:11:34.239Z,102513.89
2023-12-16T09:14:06.922Z,102507.97
2023-12-16T09:16:38.794Z,102508.15
2023-12-16T09:19:13.376Z,102512.83
2023-12-16T09:21:46.531Z,102518.41
2023-12-16T09:24:19.199Z,102521.20
2023-12-16T09:26:51.257Z,102518.41
2023-12-16T09:29:23.960Z,102522.40
2023-12-16T09:31:56.705Z,102517.35
2023-12-16T09:34:28.353Z,102517.55
2023-12-16T09:37:00.033Z,102516.48
2023-12-16T09:39:31.667Z,102514.77
2023-12-16T09:42:03.854Z,102513.55
2023-12-16T09:44:38.909Z,102508.33
2023-12-16T09:47:12.359Z,102513.17
2023-12-16T09:49:44.278Z,102512.48
2023-12-16T09:52:16.060Z,102514.05
2023-12-16T09:54:47.853Z,102512.81
2023-12-16T09:57:20.397Z,102514.04
2023-12-16T09:59:52.814Z,102505.34
2023-12-16T10:02:27.906Z,102500.99
2023-12-16T10:05:00.708Z,102495.60
2023-12-16T10:07:32.504Z,102496.47
2023-12-16T10:10:05.971Z,102494.73
2023-12-16T10:12:38.156Z,102498.54
2023-12-16T10:15:11.166Z,102495.58
2023-12-16T10:17:52.410Z,102493.67
2023-12-16T10:53:12.087Z,102484.14
2023-12-16T10:55:45.285Z,102482.41
2023-12-16T10:58:21.788Z,102470.77
2023-12-16T11:00:52.273Z,102466.60
2023-12-16T11:03:25.923Z,102467.11
2023-12-16T11:05:57.438Z,102465.39
2023-12-16T11:08:28.510Z,102455.64
2023-12-16T11:11:35.447Z,102452.48
2023-12-16T11:14:04.339Z,102446.91
2023-12-16T11:16:40.648Z,102444.13
2023-12-16T11:19:37.926Z,102439.78
2023-12-16T11:22:06.441Z,102436.29
2023-12-16T11:24:40.778Z,102436.45
2023-12-16T11:27:09.880Z,102436.59
2023-12-16T11:29:38.051Z,102430.83
2023-12-16T11:32:34.424Z,102424.89
2023-12-16T11:35:03.274Z,102424.87
2023-12-16T11:37:44.462Z,102426.06
2023-12-16T11:40:47.984Z,102431.79
2023-12-16T11:43:16.269Z,102434.05
2023-12-16T11:45:49.784Z,102434.04
2023-12-16T11:48:19.385Z,102438.02
2023-12-16T11:50:48.919Z,102437.34
2023-12-16T11:53:19.727Z,102448.63
2023-12-16T11:55:48.244Z,102444.98
2023-12-16T11:58:19.032Z,102444.80
2023-12-16T12:01:20.440Z,102451.41
2023-12-16T12:03:52.265Z,102456.64
2023-12-16T12:06:26.459Z,102454.73
2023-12-16T12:08:57.274Z,102456.30
2023-12-16T12:11:26.938Z,102448.80
2023-12-16T12:13:56.536Z,102443.90
2023-12-16T12:16:28.850Z,102433.64
2023-12-16T12:18:57.942Z,102437.65
2023-12-16T12:21:27.315Z,102433.13
2023-12-16T12:23:56.592Z,102439.91
2023-12-16T12:26:25.014Z,102437.11
2023-12-16T12:29:01.116Z,102434.52
2023-12-16T12:31:31.942Z,102428.26
2023-12-16T12:34:00.740Z,102426.70
2023-12-16T12:36:29.815Z,102421.67
2023-12-16T12:38:59.583Z,102418.53
2023-12-16T12:41:28.248Z,102409.66
2023-12-16T12:43:56.805Z,102407.92
2023-12-16T12:46:27.041Z,102412.63
2023-12-16T12:48:56.507Z,102411.73
2023-12-16T12:51:31.995Z,102406.69
2023-12-16T12:54:03.186Z,102405.48
2023-12-16T12:56:33.843Z,102401.84
2023-12-16T12:59:56.913Z,102404.80
2023-12-16T13:01:53.320Z,102404.97
2023-12-16T13:04:25.318Z,102403.92
2023-12-16T13:07:01.094Z,102397.11
2023-12-16T13:09:32.773Z,102391.55
2023-12-16T13:12:01.614Z,102383.20
2023-12-16T13:14:30.180Z,102378.38
2023-12-16T13:16:59.180Z,102389.13
2023-12-16T13:19:28.960Z,102385.48
2023-12-16T13:21:57.438Z,102384.46
2023-12-16T13:24:27.565Z,102379.94
2023-12-16T13:26:56.427Z,102375.58
2023-12-16T13:29:31.671Z,102379.94
2023-12-16T13:32:15.578Z,102382.36
2023-12-16T13:34:44.607Z,102381.67
2023-12-16T13:37:15.210Z,102382.23
2023-12-16T13:39:49.941Z,102383.44
2023-12-16T13:42:24.043Z,102377.17
2023-12-16T13:44:52.888Z,102373.34
2023-12-16T13:47:21.286Z,102370.73
2023-12-16T13:49:50.176Z,102368.45
2023-12-16T13:52:18.683Z,102368.10
2023-12-16T13:54:47.559Z,102360.81
2023-12-16T13:57:16.935Z,102364.11
2023-12-16T13:59:45.586Z,102359.28
2023-12-16T14:02:14.117Z,102360.14
2023-12-16T14:04:44.330Z,102356.85
2023-12-16T14:09:46.925Z,102351.12
2023-12-16T14:12:15.212Z,102355.29
2023-12-16T14:14:44.602Z,102352.48
2023-12-16T14:17:14.384Z,102353.71
2023-12-16T14:19:43.134Z,102353.52
2023-12-16T14:22:11.930Z,102355.44
2023-12-16T14:24:39.440Z,102349.17
2023-12-16T14:27:08.812Z,102344.83
2023-12-16T14:29:37.419Z,102349.54
2023-12-16T14:32:07.321Z,102351.11
2023-12-16T14:34:36.109Z,102350.77
2023-12-16T14:37:05.431Z,102353.91
2023-12-16T14:39:34.545Z,102346.77
2023-12-16T14:42:03.027Z,102361.70
2023-12-16T14:44:30.628Z,102362.05
2023-12-16T14:46:59.159Z,102356.33
2023-12-16T14:49:28.347Z,102363.80
2023-12-16T14:51:57.040Z,102367.09
2023-12-16T14:54:25.121Z,102363.09
2023-12-16T14:56:53.693Z,102365.01
2023-12-16T14:59:21.783Z,102361.86
2023-12-16T15:01:50.645Z,102361.34
2023-12-16T15:04:19.332Z,102358.92
2023-12-16T15:06:47.902Z,102352.13
2023-12-16T15:09:15.775Z,102354.56
2023-12-16T15:11:44.655Z,102349.89
2023-12-16T15:14:15.194Z,102346.59
2023-12-16T15:16:44.127Z,102343.64
2023-12-16T15:19:12.896Z,102343.31
2023-12-16T15:21:41.859Z,102337.23
2023-12-16T15:24:10.684Z,102338.11
2023-12-16T15:26:39.480Z,102332.36
2023-12-16T15:29:07.916Z,102328.71
2023-12-16T15:31:40.822Z,102319.85
2023-12-16T15:34:09.578Z,102319.49
2023-12-16T15:36:38.183Z,102321.75
2023-12-16T15:39:10.357Z,102321.40
2023-12-16T15:41:39.256Z,102316.52
2023-12-16T15:44:08.161Z,102310.06
2023-12-16T15:46:41.340Z,102307.79
2023-12-16T15:49:09.806Z,102304.48
2023-12-16T15:51:38.497Z,102304.09
2023-12-16T15:54:07.091Z,102304.94
2023-12-16T15:56:39.529Z,102309.09
2023-12-16T15:59:08.153Z,102306.46
2023-12-16T16:01:37.877Z,102298.09
2023-12-16T16:04:06.373Z,102299.14
2023-12-16T16:06:35.951Z,102298.80
2023-12-16T16:09:05.652Z,102294.28
2023-12-16T16:11:34.353Z,102295.33
2023-12-16T16:14:02.976Z,102299.14
2023-12-16T16:16:32.412Z,102297.40
2023-12-16T16:19:03.592Z,102301.23
2023-12-16T16:21:34.402Z,102304.55
2023-12-16T16:24:05.005Z,102300.20
2023-12-16T16:26:33.668Z,102302.64
2023-12-16T16:29:05.372Z,102300.53
2023-12-16T16:31:38.174Z,102299.99
2023-12-16T16:34:06.820Z,102306.45
2023-12-16T16:36:35.983Z,102307.86
2023-12-16T16:39:04.824Z,102307.52
2023-12-16T16:41:33.471Z,102308.02
2023-12-16T16:44:02.001Z,102304.02
2023-12-16T16:46:29.708Z,102298.81
2023-12-16T16:48:58.315Z,102295.33
2023-12-16T16:51:28.526Z,102297.44
2023-12-16T16:53:57.352Z,102301.08
2023-12-16T16:56:25.796Z,102300.55
2023-12-16T16:58:54.691Z,102300.53
2023-12-16T17:01:23.153Z,102295.13
2023-12-16T17:03:50.766Z,102290.23
2023-12-16T17:06:19.856Z,102286.05
2023-12-16T17:08:49.833Z,102288.15
2023-12-16T17:11:23.365Z,102296.85
2023-12-16T17:13:54.605Z,102294.24
2023-12-16T17:16:26.327Z,102294.59
2023-12-16T17:18:57.463Z,102299.77
2023-12-16T17:21:25.867Z,102297.14
2023-12-16T17:23:54.477Z,102305.30
2023-12-16T17:26:56.212Z,102300.94
2023-12-16T17:29:42.278Z,102298.10
2023-12-16T17:32:12.819Z,102278.92
2023-12-16T17:34:41.313Z,102280.16
2023-12-16T17:37:11.233Z,102282.27
2023-12-16T17:39:40.304Z,102275.67
2023-12-16T17:42:17.653Z,102276.00
2023-12-16T17:44:47.168Z,102281.07
2023-12-16T17:47:17.095Z,102281.27
2023-12-16T17:49:45.953Z,102280.04
2023-12-16T17:52:14.600Z,102282.30
2023-12-16T17:54:43.288Z,102283.13
2023-12-16T17:57:17.011Z,102280.84
2023-12-16T17:59:56.174Z,102275.30
2023-12-16T18:02:36.134Z,102282.94
2023-12-16T18:05:12.493Z,102281.70
2023-12-16T18:07:50.970Z,102277.19
2023-12-16T18:10:27.676Z,102273.70
2023-12-16T18:13:11.725Z,102271.42
2023-12-16T18:15:42.764Z,102262.89
2023-12-16T18:18:18.397Z,102258.90
2023-12-16T18:21:00.728Z,102255.94
2023-12-16T18:23:44.789Z,102247.77
2023-12-16T18:26:16.897Z,102247.09
2023-12-16T18:29:00.240Z,102243.28
2023-12-16T18:31:40.388Z,102238.61
2023-12-16T18:34:16.109Z,102225.27
2023-12-16T18:36:59.391Z,102242.08
2023-12-16T18:39:38.736Z,102237.20
2023-12-16T18:42:27.852Z,102221.27
2023-12-16T18:45:09.770Z,102216.07
2023-12-16T18:47:48.910Z,102245.17
2023-12-16T18:50:48.636Z,102250.40
2023-12-16T18:53:34.845Z,102248.98
2023-12-16T18:56:13.943Z,102241.48
2023-12-16T18:58:50.960Z,102235.02
2023-12-16T19:01:26.055Z,102227.91
2023-12-16T19:04:24.264Z,102225.45
2023-12-16T19:07:03.872Z,102211.92
2023-12-16T19:10:01.177Z,102225.62
2023-12-16T19:12:37.490Z,102216.99
2023-12-16T19:15:21.396Z,102224.05
2023-12-16T19:17:53.060Z,102218.47
2023-12-16T19:20:26.226Z,102206.95
2023-12-16T19:22:55.107Z,102203.64
2023-12-16T19:25:23.631Z,102198.21
2023-12-16T19:27:58.660Z,102195.42
2023-12-16T19:30:27.535Z,102195.59
2023-12-16T19:32:59.370Z,102199.27
2023-12-16T19:35:28.979Z,102202.77
2023-12-16T19:38:01.438Z,102211.84
2023-12-16T19:40:34.065Z,102215.33
2023-12-16T19:43:08.993Z,102217.05
2023-12-16T19:45:39.665Z,102217.73
2023-12-16T19:48:19.992Z,102222.62
2023-12-16T19:50:53.329Z,102227.31
2023-12-16T19:53:22.769Z,102220.90
2023-12-16T19:55:54.717Z,102226.30
2023-12-16T19:58:24.334Z,102221.80
2023-12-16T20:00:57.420Z,102212.96
2023-12-16T20:03:35.177Z,102210.52
2023-12-16T20:06:07.034Z,102211.52
2023-12-16T20:08:37.915Z,102204.02
2023-12-16T20:11:17.992Z,102202.64
2023-12-16T20:13:51.176Z,102196.55
2023-12-16T20:16:25.366Z,102182.11
2023-12-16T20:18:54.132Z,102176.38
2023-12-16T20:21:23.988Z,102176.90
2023-12-16T20:24:05.095Z,102171.83
2023-12-16T20:26:38.389Z,102159.07
2023-12-16T20:29:25.503Z,102158.02
2023-12-16T20:31:56.333Z,102140.67
2023-12-16T20:34:25.327Z,102157.69
2023-12-16T20:36:54.188Z,102154.41
2023-12-16T20:39:44.086Z,102154.58
2023-12-16T20:42:15.030Z,102155.79
2023-12-16T20:44:43.978Z,102156.30
2023-12-16T20:47:16.352Z,102163.78
2023-12-16T20:50:02.964Z,102162.90
2023-12-16T20:52:45.100Z,102167.62
2023-12-16T20:55:18.161Z,102170.77
2023-12-16T20:57:50.447Z,102172.88
2023-12-16T21:00:24.202Z,102174.96
2023-12-16T21:02:54.375Z,102174.12
2023-12-16T21:05:24.173Z,102173.42
2023-12-16T21:07:53.675Z,102174.30
2023-12-16T21:10:24.835Z,102181.42
2023-12-16T21:12:53.227Z,102185.79
2023-12-16T21:15:21.878Z,102189.47
2023-12-16T21:17:52.646Z,102184.95
2023-12-16T21:20:25.562Z,102188.25
2023-12-16T21:22:54.250Z,102180.58
2023-12-16T21:25:23.191Z,102170.12
2023-12-16T21:27:51.723Z,102152.91
2023-12-16T21:30:24.156Z,102141.09
2023-12-16T21:32:53.191Z,102143.56
2023-12-16T21:35:24.461Z,102135.11
2023-12-16T21:37:53.597Z,102134.56
2023-12-16T21:40:22.047Z,102133.89
2023-12-16T21:42:49.529Z,102144.33
2023-12-16T21:45:19.449Z,102144.70
2023-12-16T21:47:53.070Z,102145.21
2023-12-16T21:50:23.745Z,102145.40
2023-12-16T21:52:54.025Z,102144.02
2023-12-16T21:55:27.070Z,102148.19
2023-12-16T21:57:55.854Z,102140.92
2023-12-16T22:00:24.292Z,102136.76
2023-12-16T22:02:52.715Z,102125.00
2023-12-16T22:05:21.177Z,102127.23
2023-12-16T22:07:49.860Z,102126.23
2023-12-16T22:10:18.742Z,102130.11
2023-12-16T22:12:47.991Z,102122.86
2023-12-16T22:15:17.518Z,102120.98
2023-12-16T22:17:46.496Z,102119.95
2023-12-16T22:20:20.464Z,102098.05
2023-12-16T22:22:49.459Z,102083.65
2023-12-16T22:25:27.022Z,102071.46
2023-12-16T22:27:55.494Z,102062.27
2023-12-16T22:30:24.337Z,102082.30
2023-12-16T22:32:52.704Z,102081.94
2023-12-16T22:35:22.922Z,102068.36
2023-12-16T22:37:52.509Z,102072.02
2023-12-16T22:40:25.713Z,102066.29
2023-12-16T22:42:54.168Z,102054.65
2023-12-16T22:45:23.176Z,102046.83
2023-12-16T22:47:53.216Z,102048.91
2023-12-16T22:50:21.783Z,102055.38
2023-12-16T22:52:53.211Z,102058.18
2023-12-16T22:55:21.709Z,102067.04
2023-12-16T22:57:52.925Z,102068.48
2023-12-16T23:00:26.083Z,102072.10
2023-12-16T23:02:54.675Z,102069.14
2023-12-16T23:05:23.631Z,102077.81
2023-12-16T23:07:52.605Z,102091.36
2023-12-16T23:10:26.008Z,102090.83
2023-12-16T23:12:56.184Z,102098.84
2023-12-16T23:15:24.911Z,102101.44
2023-12-16T23:17:53.731Z,102110.67
2023-12-16T23:20:22.641Z,102100.05
2023-12-16T23:22:51.308Z,102089.94
2023-12-16T23:25:24.512Z,102085.39
2023-12-16T23:27:53.122Z,102079.48
2023-12-16T23:30:23.004Z,102063.66
2023-12-16T23:32:53.974Z,102068.19
2023-12-16T23:35:25.409Z,102056.89
2023-12-16T23:37:53.928Z,102039.34
2023-12-16T23:40:21.678Z,102039.68
2023-12-16T23:42:50.284Z,102028.05
2023-12-16T23:45:21.938Z,102030.12
2023-12-16T23:47:50.494Z,102036.21
2023-12-16T23:50:21.469Z,102029.11
2023-12-16T23:52:50.406Z,102034.48
2023-12-16T23:55:19.026Z,102029.27
2023-12-16T23:57:48.187Z,102018.13
